Time;durP1;ratioP1;P1;durP2;ratioP2;P2;SDS_P1;SDS_P2;PMS_P1;PMS_P2;Temp;Humidity;BMP_temperature;BMP_pressure;BME280_temperature;BME280_humidity;BME280_pressure;Samples;Min_cycle;Max_cycle;Signal;HPM_P1;HPM_P2
2022/05/23 00:01:50;;;;;;;4.40;1.90;;;;;;;20.36;52.13;99775.22;4179542;28;20526;-65
2022/05/23 00:03:53;;;;;;;2.05;1.50;;;;;;;20.36;51.89;99776.06;4173704;28;20048;-65
2022/05/23 00:05:56;;;;;;;2.53;1.65;;;;;;;20.33;52.23;99772.69;4180929;28;20127;-65
2022/05/23 00:08:00;;;;;;;4.97;1.83;;;;;;;20.30;52.26;99765.72;4176214;28;20412;-65
2022/05/23 00:10:03;;;;;;;;;;;;;;;20.08;52.95;99770.94;4153299;28;20034;-65
2022/05/23 00:12:08;;;;;;;3.60;1.77;;;;;;;20.14;53.10;99776.00;4187177;28;19920;-65
2022/05/23 00:14:11;;;;;;;3.38;1.98;;;;;;;20.14;53.04;99764.59;4173705;28;20518;-64
2022/05/23 00:16:18;;;;;;;5.93;1.70;;;;;;;20.15;53.24;99763.66;4173988;28;20044;-65
2022/05/23 00:18:22;;;;;;;4.32;1.60;;;;;;;20.05;53.41;99764.00;4179162;28;20035;-65
2022/05/23 00:20:26;;;;;;;4.93;1.80;;;;;;;20.07;53.48;99763.09;4188167;28;20090;-65
2022/05/23 00:22:30;;;;;;;2.05;1.40;;;;;;;20.00;53.38;99752.72;4176007;28;20474;-64
2022/05/23 00:24:35;;;;;;;3.63;1.77;;;;;;;19.94;54.18;99741.56;4176385;28;20037;-64
2022/05/23 00:26:39;;;;;;;3.38;1.83;;;;;;;19.91;54.20;99744.31;4172395;28;20040;-64
2022/05/23 00:28:42;;;;;;;4.13;2.00;;;;;;;19.85;53.82;99738.31;4176637;28;20047;-64
2022/05/23 00:30:45;;;;;;;2.88;1.85;;;;;;;19.80;54.42;99736.75;4175898;28;20029;-64
2022/05/23 00:35:17;;;;;;;4.15;1.85;;;;;;;19.78;54.67;99735.94;4172587;28;20049;-64
2022/05/23 00:37:27;;;;;;;3.35;1.83;;;;;;;19.75;54.57;99733.41;4187181;28;20090;-64
2022/05/23 00:39:30;;;;;;;4.85;1.95;;;;;;;19.69;55.11;99732.69;4166600;28;20051;-64
2022/05/23 00:44:01;;;;;;;4.50;2.10;;;;;;;19.65;55.15;99732.84;4180648;28;20045;-65
2022/05/23 00:46:05;;;;;;;3.42;2.00;;;;;;;19.66;54.72;99737.22;4173616;28;20053;-65
2022/05/23 00:48:08;;;;;;;;;;;;;;;19.50;55.27;99731.63;4165090;28;20516;-65
2022/05/23 00:50:15;;;;;;;3.35;1.80;;;;;;;19.60;54.95;99724.25;4148060;28;19968;-65
2022/05/23 00:52:25;;;;;;;3.45;1.90;;;;;;;19.61;54.81;99724.22;4173340;28;20040;-65
2022/05/23 00:54:34;;;;;;;3.58;2.40;;;;;;;19.60;55.16;99716.34;4170490;28;20064;-65
2022/05/23 00:56:46;;;;;;;6.57;2.28;;;;;;;19.61;55.14;99712.78;4180407;28;20759;-65
2022/05/23 00:58:52;;;;;;;3.78;2.17;;;;;;;19.58;55.31;99704.97;4176363;28;20040;-65
2022/05/23 01:00:58;;;;;;;5.10;1.95;;;;;;;19.61;55.14;99696.97;4171466;28;20061;-65
2022/05/23 01:03:05;;;;;;;3.67;2.15;;;;;;;19.57;55.22;99690.94;4178207;28;20128;-65
2022/05/23 01:05:10;;;;;;;3.97;2.38;;;;;;;19.51;55.44;99692.03;4177390;28;20032;-65
2022/05/23 01:07:14;;;;;;;4.70;2.28;;;;;;;19.45;55.38;99686.97;4172068;28;20040;-64
2022/05/23 01:09:20;;;;;;;7.47;2.58;;;;;;;19.41;55.59;99682.72;4178618;28;20037;-65
2022/05/23 01:11:23;;;;;;;5.60;2.53;;;;;;;19.36;55.92;99682.88;4161861;28;20056;-65
2022/05/23 01:13:27;;;;;;;4.85;2.60;;;;;;;19.34;55.83;99678.56;4163236;28;20191;-65
2022/05/23 01:15:32;;;;;;;4.03;2.15;;;;;;;19.34;55.64;99673.28;4170062;28;20042;-65
2022/05/23 01:17:35;;;;;;;3.92;2.08;;;;;;;19.26;56.07;99660.41;4176650;28;20091;-65
2022/05/23 01:19:43;;;;;;;4.68;2.17;;;;;;;19.28;56.31;99648.00;4178671;28;20156;-64
2022/05/23 01:21:57;;;;;;;5.03;2.72;;;;;;;19.26;56.37;99641.94;4170834;28;20045;-64
2022/05/23 01:24:12;;;;;;;4.53;2.40;;;;;;;19.22;56.52;99629.78;4156704;28;20088;-65
2022/05/23 01:26:21;;;;;;;3.45;1.70;;;;;;;19.16;56.98;99638.75;4172269;28;20041;-65
2022/05/23 01:28:33;;;;;;;3.72;2.22;;;;;;;19.18;57.05;99639.56;4173057;28;20045;-65
2022/05/23 01:30:36;;;;;;;4.32;2.55;;;;;;;19.16;57.12;99636.13;4176142;28;20123;-65
2022/05/23 01:32:55;;;;;;;5.40;2.33;;;;;;;19.17;56.75;99640.50;4167656;28;20560;-65
2022/05/23 01:34:57;;;;;;;4.03;2.33;;;;;;;19.11;57.45;99635.41;4176221;28;20061;-65
2022/05/23 01:37:01;;;;;;;4.07;2.60;;;;;;;19.05;57.46;99651.44;4176129;28;20037;-64
2022/05/23 01:39:10;;;;;;;6.05;2.17;;;;;;;18.98;57.90;99660.44;4172385;28;20128;-64
2022/05/23 01:41:13;;;;;;;5.10;2.30;;;;;;;18.96;57.74;99657.88;4156645;28;20042;-65
2022/05/23 01:43:25;;;;;;;6.38;2.28;;;;;;;18.95;58.05;99656.16;4187323;28;20029;-64
2022/05/23 01:45:46;;;;;;;4.78;2.63;;;;;;;18.97;57.80;99646.44;4169926;28;20048;-64
2022/05/23 01:48:06;;;;;;;5.13;2.53;;;;;;;19.05;57.96;99638.25;4172748;28;20033;-64
2022/05/23 01:50:10;;;;;;;6.60;3.15;;;;;;;19.07;58.02;99633.81;4173611;28;20045;-64
2022/05/23 01:52:19;;;;;;;6.68;3.00;;;;;;;19.06;57.88;99624.19;4178920;28;20486;-64
2022/05/23 01:54:22;;;;;;;2.88;2.05;;;;;;;19.05;57.78;99614.56;4174101;28;20037;-65
2022/05/23 01:56:26;;;;;;;4.30;2.60;;;;;;;19.03;57.72;99613.75;4179149;28;20037;-64
2022/05/23 02:01:14;;;;;;;3.83;2.17;;;;;;;18.95;58.35;99624.56;4124091;28;20404;-65
2022/05/23 02:03:25;;;;;;;6.35;2.50;;;;;;;18.97;58.64;99616.59;4147727;28;20037;-65
2022/05/23 02:05:33;;;;;;;3.72;2.28;;;;;;;19.00;58.91;99616.50;4169894;28;20650;-65
2022/05/23 02:07:36;;;;;;;3.75;2.10;;;;;;;19.03;58.47;99613.75;4163739;28;20100;-65
2022/05/23 02:09:40;;;;;;;5.57;2.70;;;;;;;19.01;59.03;99615.56;4178239;28;20069;-65
2022/05/23 02:11:50;;;;;;;4.68;2.50;;;;;;;18.99;59.06;99614.78;4172947;28;20026;-64
2022/05/23 02:14:01;;;;;;;7.25;2.45;;;;;;;19.01;58.93;99605.91;4174936;28;20059;-64
2022/05/23 02:16:13;;;;;;;5.05;2.47;;;;;;;18.99;59.41;99596.31;4170398;28;20056;-65
2022/05/23 02:18:18;;;;;;;4.85;2.38;;;;;;;18.94;59.23;99595.59;4154252;28;20049;-64
2022/05/23 02:20:20;;;;;;;6.03;2.60;;;;;;;18.97;59.71;99590.28;4172063;28;20029;-65
2022/05/23 02:22:23;;;;;;;4.28;2.53;;;;;;;19.00;59.29;99577.84;4191372;28;20071;-65
2022/05/23 02:24:37;;;;;;;4.35;2.65;;;;;;;19.00;59.54;99571.72;4169586;28;20392;-65
2022/05/23 02:26:40;;;;;;;5.30;2.85;;;;;;;19.02;59.23;99567.25;4178382;28;20111;-65
2022/05/23 02:28:55;;;;;;;7.35;2.53;;;;;;;18.99;59.65;99568.19;4173672;28;20531;-64
2022/05/23 02:31:03;;;;;;;3.55;2.13;;;;;;;19.00;59.64;99569.94;4169108;28;20520;-65
2022/05/23 02:33:20;;;;;;;4.30;2.40;;;;;;;19.03;59.92;99568.97;4171617;28;20124;-64
2022/05/23 02:35:30;;;;;;;4.68;2.55;;;;;;;19.00;60.21;99569.09;4184885;28;20072;-64
2022/05/23 02:37:33;;;;;;;3.90;2.17;;;;;;;18.98;60.39;99569.13;4178866;28;20044;-64
2022/05/23 02:39:38;;;;;;;4.20;2.83;;;;;;;18.94;60.36;99566.63;4170102;28;20068;-64
2022/05/23 02:41:41;;;;;;;4.45;2.50;;;;;;;18.94;61.14;99562.25;4177493;28;20037;-64
2022/05/23 02:43:48;;;;;;;5.10;2.78;;;;;;;18.99;60.85;99562.09;4161621;28;20132;-66
2022/05/23 02:45:56;;;;;;;7.55;2.72;;;;;;;19.02;60.95;99556.72;4178537;28;20131;-64
2022/05/23 02:48:00;;;;;;;6.45;2.78;;;;;;;19.05;60.55;99555.75;4183371;28;20053;-64
2022/05/23 02:50:06;;;;;;;5.40;2.45;;;;;;;19.07;60.44;99543.38;4178298;28;20041;-67
2022/05/23 02:52:27;;;;;;;7.03;3.05;;;;;;;19.10;60.26;99559.06;4177205;28;20039;-64
2022/05/23 02:54:39;;;;;;;7.50;3.42;;;;;;;19.01;59.87;99555.84;4164804;28;20065;-65
2022/05/23 02:56:41;;;;;;;5.68;3.75;;;;;;;19.00;59.70;99555.91;4159942;28;20137;-64
2022/05/23 02:58:44;;;;;;;6.60;3.45;;;;;;;18.96;59.28;99567.47;4173200;28;20037;-64
2022/05/23 03:00:49;;;;;;;11.80;4.07;;;;;;;18.92;59.25;99564.06;4175218;28;20498;-64
2022/05/23 03:03:03;;;;;;;8.75;3.90;;;;;;;18.89;59.24;99556.28;4170912;28;20041;-64
2022/05/23 03:05:16;;;;;;;5.45;2.80;;;;;;;18.87;58.88;99558.09;4183554;28;20086;-64
2022/05/23 03:07:21;;;;;;;5.40;3.25;;;;;;;18.95;58.63;99555.19;4179401;28;20049;-64
2022/05/23 03:09:38;;;;;;;6.25;2.45;;;;;;;19.00;58.97;99554.13;4176414;28;20128;-65
2022/05/23 03:11:52;;;;;;;5.50;3.00;;;;;;;19.02;59.26;99560.19;4173171;28;20108;-65
2022/05/23 03:13:59;;;;;;;7.38;2.90;;;;;;;18.99;59.75;99552.41;4165650;28;20041;-65
2022/05/23 03:16:08;;;;;;;6.70;2.85;;;;;;;19.00;59.99;99558.53;4170199;28;20036;-65
2022/05/23 03:18:13;;;;;;;5.97;3.20;;;;;;;18.97;59.87;99558.66;4176256;28;20048;-65
2022/05/23 03:20:19;;;;;;;9.25;3.17;;;;;;;18.91;60.54;99538.66;4167791;28;20047;-65
2022/05/23 03:27:04;;;;;;;5.93;2.60;;;;;;;18.93;59.86;99560.53;4170517;28;20438;-64
2022/05/23 03:29:14;;;;;;;6.45;3.15;;;;;;;18.84;59.79;99574.84;4173754;28;20041;-66
2022/05/23 03:31:21;;;;;;;6.07;3.05;;;;;;;18.74;60.21;99586.59;4147117;28;20038;-66
2022/05/23 03:33:24;;;;;;;5.40;3.22;;;;;;;18.71;59.30;99597.22;4153322;28;20037;-65
2022/05/23 03:35:30;;;;;;;6.20;2.72;;;;;;;18.64;59.70;99606.25;4164861;28;20063;-65
2022/05/23 03:37:34;;;;;;;6.43;3.08;;;;;;;18.50;59.54;99609.34;4175204;28;20483;-65
2022/05/23 03:39:43;;;;;;;8.00;3.00;;;;;;;18.33;59.65;99620.38;4164358;28;20076;-66
2022/05/23 03:41:45;;;;;;;6.03;3.13;;;;;;;18.22;60.08;99636.50;4175657;28;20041;-65
2022/05/23 03:43:48;;;;;;;7.03;3.63;;;;;;;18.18;60.16;99661.19;4175403;28;20509;-65
2022/05/23 03:45:51;;;;;;;6.68;3.15;;;;;;;18.13;60.57;99692.03;4181864;28;20446;-65
2022/05/23 03:47:56;;;;;;;4.78;3.28;;;;;;;18.17;60.47;99724.38;4168813;28;20033;-65
2022/05/23 03:49:59;;;;;;;9.70;3.90;;;;;;;18.12;60.87;99762.19;4176818;28;20703;-64
2022/05/23 03:52:04;;;;;;;7.63;3.67;;;;;;;18.05;60.82;99810.63;4164154;28;20514;-64
2022/05/23 03:54:09;;;;;;;7.68;3.65;;;;;;;17.98;60.68;99822.19;4179808;28;20072;-64
2022/05/23 03:56:13;;;;;;;7.53;3.65;;;;;;;17.87;60.53;99829.47;4162598;28;20044;-64
2022/05/23 03:58:22;;;;;;;7.20;3.65;;;;;;;17.79;60.53;99817.38;4178090;28;20067;-65
2022/05/23 04:00:44;;;;;;;8.52;3.75;;;;;;;17.80;60.74;99808.59;4181321;28;20129;-64
2022/05/23 04:02:47;;;;;;;6.00;3.00;;;;;;;17.89;60.71;99798.75;4180255;28;20060;-64
2022/05/23 04:04:50;;;;;;;7.93;3.50;;;;;;;17.99;60.89;99797.63;4157319;28;20124;-64
2022/05/23 04:07:13;;;;;;;7.63;3.50;;;;;;;17.99;60.73;99791.50;4170435;28;20128;-65
2022/05/23 04:09:33;;;;;;;6.78;3.63;;;;;;;17.99;61.96;99773.97;4164399;28;20084;-65
2022/05/23 04:11:36;;;;;;;4.47;2.78;;;;;;;18.09;62.22;99774.56;4188044;28;20063;-65
2022/05/23 04:13:39;;;;;;;4.38;3.05;;;;;;;18.12;62.27;99775.34;4189494;28;20056;-65
2022/05/23 04:15:43;;;;;;;5.43;3.15;;;;;;;18.13;62.47;99769.16;4189118;28;20037;-65
2022/05/23 04:17:46;;;;;;;7.75;2.95;;;;;;;18.12;63.02;99771.84;4178579;28;20106;-65
2022/05/23 04:19:49;;;;;;;7.00;3.70;;;;;;;18.14;62.71;99784.03;4177615;28;20438;-65
2022/05/23 04:21:58;;;;;;;7.82;3.50;;;;;;;18.11;62.96;99799.91;4169118;28;20124;-64
2022/05/23 04:24:08;;;;;;;9.00;3.58;;;;;;;18.12;63.35;99796.41;4178327;28;20049;-65
2022/05/23 04:26:10;;;;;;;;;;;;;;;18.00;63.68;99801.13;4171528;28;20056;-65
2022/05/23 04:28:14;;;;;;;7.68;3.58;;;;;;;18.03;64.20;99807.13;4180207;28;19963;-65
2022/05/23 04:30:19;;;;;;;11.38;4.10;;;;;;;18.12;65.09;99806.03;4176020;28;20048;-65
2022/05/23 04:37:05;;;;;;;10.48;4.47;;;;;;;18.00;66.16;99783.56;4187834;28;20054;-65
2022/05/23 04:39:18;;;;;;;12.65;4.80;;;;;;;18.00;66.66;99759.88;4162170;28;20128;-65
2022/05/23 04:41:23;;;;;;;7.55;4.85;;;;;;;18.14;66.20;99741.97;4178475;28;20114;-65
2022/05/23 04:43:30;;;;;;;7.15;4.43;;;;;;;17.98;65.97;99737.19;4172827;28;20071;-65
2022/05/23 04:45:34;;;;;;;8.73;4.80;;;;;;;17.79;66.69;99735.03;4170428;28;20050;-65
2022/05/23 04:50:32;;;;;;;9.27;4.35;;;;;;;17.86;66.55;99712.03;4167495;28;20380;-65
2022/05/23 04:52:40;;;;;;;10.57;4.95;;;;;;;17.79;66.90;99696.44;4161582;28;20041;-65
2022/05/23 04:54:44;;;;;;;7.45;4.57;;;;;;;17.73;66.70;99665.06;4175693;28;21351;-65
2022/05/23 04:56:48;;;;;;;9.93;4.95;;;;;;;17.60;66.99;99640.03;4180221;28;20124;-65
2022/05/23 04:58:55;;;;;;;10.38;5.93;;;;;;;17.42;67.76;99630.88;4180396;28;20047;-65
2022/05/23 05:01:00;;;;;;;9.20;5.38;;;;;;;17.40;68.23;99617.78;4179875;28;20061;-65
2022/05/23 05:03:04;;;;;;;12.07;5.95;;;;;;;17.53;68.54;99581.50;4163604;28;20030;-66
2022/05/23 05:05:19;;;;;;;15.07;5.72;;;;;;;17.42;68.46;99534.53;4180538;28;20033;-66
2022/05/23 05:07:27;;;;;;;14.93;5.90;;;;;;;17.25;68.76;99500.00;4178161;28;20063;-65
2022/05/23 05:09:34;;;;;;;13.07;6.13;;;;;;;17.19;69.36;99489.69;4163527;28;20037;-66
2022/05/23 05:11:41;;;;;;;15.73;6.93;;;;;;;16.99;70.04;99488.47;4180319;28;20065;-66
2022/05/23 05:13:52;;;;;;;15.70;6.47;;;;;;;16.88;71.24;99477.38;4178451;28;20098;-66
2022/05/23 05:15:58;;;;;;;11.63;7.50;;;;;;;16.88;71.70;99466.88;4175773;28;20076;-66
2022/05/23 05:18:03;;;;;;;12.77;7.72;;;;;;;16.84;71.57;99460.00;4164542;28;20033;-65
2022/05/23 05:20:11;;;;;;;11.10;7.45;;;;;;;16.83;71.78;99455.63;4163744;28;20144;-65
2022/05/23 05:22:32;;;;;;;14.30;6.97;;;;;;;16.75;72.07;99461.97;4164829;28;20057;-65
2022/05/23 05:25:07;;;;;;;11.55;7.68;;;;;;;16.79;72.11;99462.72;4159748;28;20057;-65
2022/05/23 05:27:18;;;;;;;11.10;6.95;;;;;;;16.91;71.45;99470.31;4163700;28;20268;-65
2022/05/23 05:29:22;;;;;;;9.90;6.25;;;;;;;16.90;71.19;99465.94;4179418;28;20033;-65
2022/05/23 05:31:30;;;;;;;9.18;6.18;;;;;;;17.01;71.23;99452.53;4147179;28;20069;-65
2022/05/23 05:33:39;;;;;;;14.35;7.18;;;;;;;17.06;72.28;99382.34;4165955;28;20473;-65
2022/05/23 05:35:49;;;;;;;9.93;6.50;;;;;;;17.27;72.24;99316.94;4163375;28;20518;-65
2022/05/23 05:37:55;;;;;;;12.02;6.88;;;;;;;17.24;71.99;99296.03;4163256;28;20132;-65
2022/05/23 05:40:02;;;;;;;8.93;6.00;;;;;;;17.25;71.21;99303.00;4163487;28;20038;-65
2022/05/23 05:42:09;;;;;;;9.00;5.40;;;;;;;17.20;71.38;99336.44;4147021;28;20515;-65
2022/05/23 05:44:21;;;;;;;9.25;5.22;;;;;;;17.30;70.02;99379.88;4170285;28;20041;-65
2022/05/23 05:46:29;;;;;;;11.65;6.40;;;;;;;17.44;70.36;99367.19;4162515;28;20053;-65
2022/05/23 05:48:48;;;;;;;7.82;5.15;;;;;;;17.46;69.92;99340.84;4151626;28;20063;-65
2022/05/23 05:50:52;;;;;;;7.22;4.20;;;;;;;17.43;70.32;99365.47;4163346;28;20096;-65
2022/05/23 05:52:58;;;;;;;7.90;4.68;;;;;;;17.49;70.99;99389.84;4163366;28;20041;-65
2022/05/23 05:55:06;;;;;;;6.82;4.57;;;;;;;17.57;70.83;99399.19;4173360;28;20119;-65
2022/05/23 05:57:13;;;;;;;6.00;3.85;;;;;;;17.60;71.33;99408.75;4173163;28;20038;-65
2022/05/23 05:59:18;;;;;;;12.85;5.45;;;;;;;17.57;71.97;99416.75;4163671;28;20121;-65
2022/05/23 06:01:22;;;;;;;7.03;4.53;;;;;;;17.54;71.88;99419.47;4163182;28;20125;-65
2022/05/23 06:03:26;;;;;;;7.65;3.95;;;;;;;17.52;71.75;99411.63;4163162;28;20044;-64
2022/05/23 06:13:04;;;;;;;7.72;4.22;;;;;;;17.66;72.28;99426.09;4162856;28;20551;-65
2022/05/23 06:15:21;;;;;;;7.55;4.68;;;;;;;17.74;71.99;99427.56;4163105;28;20046;-65
2022/05/23 06:17:24;;;;;;;7.18;4.50;;;;;;;17.78;71.58;99430.94;4173975;28;20057;-65
2022/05/23 06:19:37;;;;;;;6.47;4.63;;;;;;;17.88;71.82;99424.50;4169904;28;20407;-65
2022/05/23 06:21:47;;;;;;;6.45;4.35;;;;;;;17.90;71.75;99419.22;4163017;28;20577;-65
2022/05/23 06:23:50;;;;;;;10.48;5.80;;;;;;;17.84;70.64;99424.66;4146661;28;20034;-65
2022/05/23 06:26:15;;;;;;;9.05;5.22;;;;;;;17.89;70.91;99430.63;4172026;28;20514;-65
2022/05/23 06:28:51;;;;;;;10.25;5.80;;;;;;;18.00;70.98;99418.00;4178631;28;20037;-65
2022/05/23 06:30:59;;;;;;;9.18;4.82;;;;;;;18.06;70.43;99416.94;4175364;28;20041;-65
2022/05/23 06:33:08;;;;;;;9.95;5.55;;;;;;;18.11;70.31;99415.03;4179354;28;20095;-65
2022/05/23 06:35:26;;;;;;;9.70;5.13;;;;;;;18.25;69.96;99406.66;4179414;28;20124;-65
2022/05/23 06:37:29;;;;;;;8.52;4.88;;;;;;;18.33;69.88;99414.31;4179201;28;20056;-65
2022/05/23 06:39:44;;;;;;;;;;;;;;;18.20;69.98;99419.13;4179560;28;20063;-65
2022/05/23 06:41:50;;;;;;;;;;;;;;;18.18;69.74;99413.03;4179236;28;19920;-65
2022/05/23 06:44:13;;;;;;;10.70;4.32;;;;;;;18.28;69.06;99412.69;4165552;28;19932;-65
2022/05/23 06:46:36;;;;;;;7.32;4.13;;;;;;;18.28;68.41;99417.06;4180385;28;20060;-65
2022/05/23 06:48:59;;;;;;;7.80;4.15;;;;;;;18.19;68.41;99418.25;4168119;28;20056;-65
2022/05/23 06:51:17;;;;;;;5.22;3.72;;;;;;;18.11;68.54;99426.41;4179134;28;20033;-65
2022/05/23 06:53:24;;;;;;;10.27;3.97;;;;;;;18.15;68.90;99429.81;4149925;28;20045;-65
2022/05/23 06:56:05;;;;;;;5.97;3.72;;;;;;;18.22;69.24;99433.06;4126883;28;20424;-65
2022/05/23 06:58:09;;;;;;;5.75;3.53;;;;;;;18.33;68.30;99440.63;4111860;28;20137;-65
2022/05/23 07:00:13;;;;;;;5.90;3.28;;;;;;;18.19;68.44;99451.59;4113211;28;20493;-65
2022/05/23 07:02:21;;;;;;;4.78;3.00;;;;;;;18.30;68.31;99441.56;4162615;28;20046;-65
2022/05/23 07:14:24;;;;;;;5.15;2.92;;;;;;;18.59;66.37;99464.25;4165552;28;20045;-65
2022/05/23 07:16:31;;;;;;;7.45;2.95;;;;;;;18.64;66.47;99466.72;4182196;28;20188;-65
2022/05/23 07:18:37;;;;;;;7.30;3.60;;;;;;;18.54;66.13;99475.84;4181780;28;20115;-65
2022/05/23 07:20:49;;;;;;;5.15;2.90;;;;;;;18.40;67.27;99474.56;4182098;28;20099;-65
2022/05/23 07:23:01;;;;;;;5.65;3.70;;;;;;;18.42;67.04;99472.72;4176261;28;20037;-65
2022/05/23 07:25:07;;;;;;;6.68;3.20;;;;;;;18.48;66.72;99469.88;4180663;28;20068;-65
2022/05/23 07:27:12;;;;;;;7.93;3.40;;;;;;;18.71;66.90;99470.84;4190200;28;20040;-65
2022/05/23 07:29:15;;;;;;;7.53;3.00;;;;;;;18.46;67.46;99469.06;4181535;28;20049;-64
2022/05/23 07:31:19;;;;;;;6.60;3.97;;;;;;;18.48;66.47;99475.13;4165375;28;20137;-65
2022/05/23 07:33:23;;;;;;;7.70;3.35;;;;;;;18.44;66.61;99476.16;4181981;28;20045;-65
2022/05/23 07:35:34;;;;;;;5.70;3.28;;;;;;;18.45;67.11;99461.22;4198427;28;20043;-65
2022/05/23 07:37:37;;;;;;;;;;;;;;;18.38;67.53;99452.66;4181311;28;20468;-65
2022/05/23 07:39:40;;;;;;;6.85;3.25;;;;;;;18.35;67.13;99465.94;4150874;28;19921;-65
2022/05/23 07:42:10;;;;;;;5.63;3.65;;;;;;;18.47;67.23;99467.28;4148782;28;20070;-65
2022/05/23 07:44:13;;;;;;;4.40;3.20;;;;;;;18.56;67.12;99456.47;4165182;28;20052;-65
2022/05/23 07:46:18;;;;;;;8.45;3.13;;;;;;;18.64;67.36;99458.81;4164827;28;20132;-65
2022/05/23 07:48:22;;;;;;;6.43;3.38;;;;;;;18.72;67.27;99454.16;4156489;28;20416;-65
2022/05/23 07:50:25;;;;;;;7.93;3.80;;;;;;;18.95;66.29;99447.22;4148667;28;20045;-65
2022/05/23 07:52:33;;;;;;;5.38;3.97;;;;;;;19.02;65.56;99438.16;4181599;28;20048;-64
2022/05/23 08:01:50;;;;;;;4.18;2.60;;;;;;;19.21;65.26;99433.06;4164916;28;20045;-64
2022/05/23 08:03:53;;;;;;;5.70;3.53;;;;;;;19.23;64.93;99422.47;4181314;28;20152;-65
2022/05/23 08:06:10;;;;;;;4.70;3.17;;;;;;;19.25;65.36;99428.56;4150266;28;20070;-65
2022/05/23 08:08:14;;;;;;;8.90;3.85;;;;;;;19.42;65.69;99418.22;4148094;28;20050;-64
2022/05/23 08:10:18;;;;;;;9.55;3.88;;;;;;;19.30;65.04;99409.03;4170629;28;20041;-65
2022/05/23 08:12:22;;;;;;;4.57;3.22;;;;;;;19.13;65.39;99414.06;4173053;28;20045;-64
2022/05/23 08:14:25;;;;;;;4.70;3.28;;;;;;;19.17;65.57;99428.81;4181196;28;20136;-64
2022/05/23 08:16:43;;;;;;;5.38;3.38;;;;;;;19.28;66.17;99423.16;4181334;28;20130;-64
2022/05/23 08:18:46;;;;;;;7.07;3.60;;;;;;;19.48;66.07;99402.16;4184377;28;20037;-65
2022/05/23 08:20:49;;;;;;;6.55;3.00;;;;;;;19.50;64.57;99395.03;4176165;28;20331;-65
2022/05/23 08:22:57;;;;;;;6.22;3.40;;;;;;;19.62;64.46;99388.41;4164212;28;20392;-64
2022/05/23 08:25:09;;;;;;;10.10;3.90;;;;;;;19.72;64.88;99396.81;4197595;28;20083;-64
2022/05/23 08:27:17;;;;;;;5.63;3.13;;;;;;;19.84;63.50;99406.91;4169296;28;20060;-64
2022/05/23 08:29:23;;;;;;;8.55;3.63;;;;;;;19.96;63.02;99399.41;4188817;28;20131;-65
2022/05/23 08:31:40;;;;;;;8.15;4.20;;;;;;;19.84;63.71;99414.81;4164382;28;20093;-65
2022/05/23 08:33:50;;;;;;;3.40;2.65;;;;;;;19.65;64.45;99414.66;4181001;28;20071;-64
2022/05/23 08:35:59;;;;;;;6.53;3.20;;;;;;;19.80;63.93;99417.63;4147909;28;20129;-64
2022/05/23 08:38:04;;;;;;;4.80;2.60;;;;;;;19.80;63.86;99409.72;4163907;28;20072;-64
2022/05/23 08:40:36;;;;;;;6.93;3.78;;;;;;;19.90;63.88;99418.97;4164609;28;20116;-64
2022/05/23 08:42:55;;;;;;;4.30;3.25;;;;;;;20.10;62.52;99409.38;4175343;28;20060;-64
2022/05/23 08:45:23;;;;;;;5.53;3.42;;;;;;;20.26;62.17;99417.50;4181254;28;20068;-64
2022/05/23 08:47:33;;;;;;;10.63;3.53;;;;;;;20.55;61.84;99413.63;4180791;28;20045;-65
2022/05/23 08:49:45;;;;;;;3.90;2.53;;;;;;;20.40;62.38;99423.06;4179988;28;20044;-64
2022/05/23 08:51:58;;;;;;;5.88;2.80;;;;;;;20.38;61.48;99422.25;4177149;28;20038;-64
2022/05/23 08:54:15;;;;;;;6.32;2.45;;;;;;;20.61;61.44;99431.81;4174849;28;20132;-64
2022/05/23 08:56:43;;;;;;;5.72;3.17;;;;;;;20.76;60.46;99432.94;4179930;28;20047;-64
2022/05/23 08:58:56;;;;;;;5.75;3.08;;;;;;;20.79;60.17;99424.03;4176056;28;20430;-64
2022/05/23 09:01:03;;;;;;;5.00;2.60;;;;;;;20.87;60.01;99430.69;4164036;28;20041;-64
2022/05/23 09:03:11;;;;;;;5.38;3.00;;;;;;;21.08;59.33;99426.25;4180577;28;20059;-64
2022/05/23 09:05:20;;;;;;;5.80;2.60;;;;;;;21.14;59.38;99425.06;4179852;28;20449;-64
2022/05/23 09:07:47;;;;;;;;;;;;;;;20.97;59.03;99431.16;4165410;28;20041;-64
2022/05/23 09:09:52;;;;;;;3.92;2.33;;;;;;;20.96;59.24;99442.63;4170132;28;19947;-64
2022/05/23 09:12:03;;;;;;;8.27;2.65;;;;;;;21.20;59.91;99440.66;4177730;28;20124;-64
2022/05/23 09:14:08;;;;;;;4.80;2.42;;;;;;;21.26;59.90;99439.50;4181401;28;20051;-64
2022/05/23 09:16:13;;;;;;;8.23;2.72;;;;;;;21.57;58.77;99449.53;4166236;28;20576;-64
2022/05/23 09:18:22;;;;;;;3.25;2.15;;;;;;;21.57;59.13;99449.53;4178687;28;20130;-64
2022/05/23 09:20:36;;;;;;;5.45;2.40;;;;;;;21.76;59.91;99438.94;4164958;28;20037;-64
2022/05/23 09:22:47;;;;;;;4.85;2.83;;;;;;;21.97;57.20;99430.88;4163680;28;20136;-64
2022/05/23 09:24:54;;;;;;;5.47;3.03;;;;;;;22.17;55.52;99421.94;4163670;28;20529;-64
2022/05/23 09:27:00;;;;;;;7.00;2.60;;;;;;;22.16;56.36;99420.22;4172722;28;20097;-64
2022/05/23 09:29:08;;;;;;;4.05;2.28;;;;;;;22.03;57.95;99425.28;4169798;28;20041;-64
2022/05/23 09:31:19;;;;;;;3.15;2.22;;;;;;;22.05;57.75;99420.78;4179964;28;20044;-64
2022/05/23 09:33:23;;;;;;;4.35;2.40;;;;;;;22.15;56.25;99413.22;4180713;28;20390;-64
2022/05/23 09:35:28;;;;;;;5.38;2.25;;;;;;;22.41;56.56;99408.41;4154098;28;20041;-64
2022/05/23 09:37:39;;;;;;;5.53;2.40;;;;;;;22.47;57.83;99400.13;4179239;28;20040;-64
2022/05/23 09:39:51;;;;;;;6.47;2.30;;;;;;;22.38;56.87;99406.78;4168818;28;20045;-64
2022/05/23 09:49:26;;;;;;;9.63;3.15;;;;;;;22.63;56.13;99392.25;4179431;28;20053;-64
2022/05/23 09:51:29;;;;;;;5.32;2.50;;;;;;;22.60;57.51;99390.59;4172310;28;20380;-64
2022/05/23 09:53:38;;;;;;;5.32;2.65;;;;;;;22.79;56.10;99382.56;4180931;28;20045;-64
2022/05/23 09:55:41;;;;;;;5.38;2.42;;;;;;;22.93;56.67;99384.44;4177595;28;20040;-64
2022/05/23 09:57:53;;;;;;;5.35;2.65;;;;;;;23.00;56.36;99380.53;4175518;28;20061;-64
2022/05/23 10:00:02;;;;;;;7.60;2.85;;;;;;;23.07;55.80;99380.19;4174332;28;20419;-64
2022/05/23 10:02:23;;;;;;;7.70;2.92;;;;;;;23.30;54.73;99382.44;4179716;28;20060;-64
2022/05/23 10:04:29;;;;;;;6.53;2.70;;;;;;;23.08;55.78;99384.56;4163116;28;20062;-64
2022/05/23 10:06:35;;;;;;;5.60;2.90;;;;;;;23.04;56.16;99383.00;4180765;28;20538;-64
2022/05/23 10:08:40;;;;;;;4.68;2.53;;;;;;;23.28;56.19;99379.03;4162818;28;20039;-63
2022/05/23 10:10:59;;;;;;;7.57;2.97;;;;;;;23.31;55.17;99367.41;4179540;28;20088;-64
2022/05/23 10:13:23;;;;;;;6.63;3.00;;;;;;;23.21;56.12;99377.66;4179381;28;20391;-64
2022/05/23 10:15:29;;;;;;;7.55;3.33;;;;;;;23.25;55.67;99378.38;4171473;28;20047;-64
2022/05/23 10:17:37;;;;;;;5.90;3.08;;;;;;;23.11;58.43;99376.47;4164053;28;20433;-64
2022/05/23 10:19:41;;;;;;;7.35;2.97;;;;;;;22.89;57.48;99374.09;4164328;28;20092;-64
2022/05/23 10:21:45;;;;;;;6.40;3.10;;;;;;;22.81;57.34;99370.06;4173433;28;20037;-64
2022/05/23 10:24:00;;;;;;;5.53;2.42;;;;;;;22.89;57.25;99367.00;4175924;28;20516;-64
2022/05/23 10:26:10;;;;;;;6.60;2.50;;;;;;;22.90;57.81;99371.38;4158511;28;20521;-64
2022/05/23 10:28:18;;;;;;;5.45;2.88;;;;;;;22.86;57.09;99363.69;4171827;28;20035;-64
2022/05/23 10:30:25;;;;;;;4.70;2.88;;;;;;;22.75;57.05;99369.53;4178325;28;20037;-64
2022/05/23 10:32:36;;;;;;;4.30;2.60;;;;;;;22.81;57.71;99377.19;4171787;28;20079;-64
2022/05/23 10:34:42;;;;;;;5.85;2.72;;;;;;;22.83;57.91;99373.50;4180544;28;20043;-64
2022/05/23 10:36:49;;;;;;;6.60;2.78;;;;;;;22.94;57.81;99374.69;4179368;28;20118;-64
2022/05/23 10:43:50;;;;;;;12.32;3.28;;;;;;;23.10;57.00;99342.91;4178193;28;20911;-64
2022/05/23 10:45:56;;;;;;;6.38;3.03;;;;;;;23.08;57.87;99347.44;4173387;28;20116;-64
2022/05/23 10:48:28;;;;;;;10.00;2.97;;;;;;;22.99;58.57;99356.75;4183553;28;20045;-64
2022/05/23 10:50:39;;;;;;;6.82;2.92;;;;;;;22.85;58.09;99368.09;4183785;28;20512;-63
2022/05/23 10:52:52;;;;;;;5.13;2.72;;;;;;;22.80;58.33;99368.34;4181984;28;20044;-64
2022/05/23 10:55:06;;;;;;;7.10;3.20;;;;;;;22.79;58.12;99365.78;4178109;28;20044;-64
2022/05/23 10:57:25;;;;;;;5.25;2.97;;;;;;;22.84;58.67;99364.59;4167141;28;20099;-64
2022/05/23 10:59:36;;;;;;;5.05;2.60;;;;;;;22.94;58.83;99359.66;4165775;28;20049;-64
2022/05/23 11:01:51;;;;;;;8.80;3.00;;;;;;;22.94;58.27;99348.19;4181157;28;20578;-64
2022/05/23 11:04:05;;;;;;;4.57;2.97;;;;;;;22.97;58.74;99342.75;4178245;28;20488;-64